Time;durP1;ratioP1;P1;durP2;ratioP2;P2;SDS_P1;SDS_P2;PMS_P1;PMS_P2;Temp;Humidity;BMP_temperature;BMP_pressure;BME280_temperature;BME280_humidity;BME280_pressure;Samples;Min_cycle;Max_cycle;Signal;HPM_P1;HPM_P2
2021/05/30 00:02:08;;;;;;;3.45;2.78;;;;;;;;;;4977902;28;20026;-80
2021/05/30 00:04:34;;;;;;;3.60;3.08;;;;;;;;;;4994753;28;20053;-80
2021/05/30 00:06:59;;;;;;;4.80;2.72;;;;;;;;;;4978351;28;20052;-80
2021/05/30 00:09:25;;;;;;;3.55;3.17;;;;;;;;;;4994072;28;20057;-80
2021/05/30 00:11:50;;;;;;;4.55;3.05;;;;;;;;;;4978386;28;20436;-81
2021/05/30 00:14:16;;;;;;;4.22;3.20;;;;;;;;;;4993822;28;20396;-80
2021/05/30 00:16:42;;;;;;;4.43;2.85;;;;;;;;;;4994070;28;20034;-81
2021/05/30 00:19:07;;;;;;;4.07;3.10;;;;;;;;;;4977796;28;20366;-81
2021/05/30 00:21:33;;;;;;;4.82;2.90;;;;;;;;;;4989925;28;20035;-81
2021/05/30 00:23:58;;;;;;;4.07;3.10;;;;;;;;;;4990968;28;20039;-81
2021/05/30 00:26:24;;;;;;;4.07;2.95;;;;;;;;;;4996072;28;20104;-81
2021/05/30 00:28:50;;;;;;;5.68;3.08;;;;;;;;;;4977642;28;20421;-80
2021/05/30 00:31:15;;;;;;;4.07;3.00;;;;;;;;;;4977327;28;20070;-81
2021/05/30 00:33:41;;;;;;;4.38;3.42;;;;;;;;;;4999005;28;20050;-82
2021/05/30 00:36:07;;;;;;;4.70;3.13;;;;;;;;;;4974654;28;20085;-81
2021/05/30 00:38:32;;;;;;;4.80;3.45;;;;;;;;;;4991027;28;20088;-81
2021/05/30 00:40:58;;;;;;;3.88;2.88;;;;;;;;;;4990429;28;20046;-80
2021/05/30 00:43:24;;;;;;;4.50;3.58;;;;;;;;;;4990415;28;20038;-80
2021/05/30 00:45:50;;;;;;;5.72;3.53;;;;;;;;;;4974234;28;20810;-81
2021/05/30 00:48:15;;;;;;;5.63;3.83;;;;;;;;;;4977191;28;20393;-80
2021/05/30 00:50:41;;;;;;;3.85;3.00;;;;;;;;;;4993587;28;20053;-80
2021/05/30 00:53:06;;;;;;;4.95;3.22;;;;;;;;;;4976618;28;20392;-80
2021/05/30 00:55:32;;;;;;;4.47;3.20;;;;;;;;;;4977157;28;20104;-80
2021/05/30 00:57:57;;;;;;;4.47;2.90;;;;;;;;;;5009738;28;20045;-80
2021/05/30 01:00:23;;;;;;;4.78;3.28;;;;;;;;;;4993454;28;20036;-80
2021/05/30 01:02:49;;;;;;;5.75;3.58;;;;;;;;;;4992851;28;20034;-80
2021/05/30 01:05:14;;;;;;;4.28;3.22;;;;;;;;;;5009384;28;20053;-80
2021/05/30 01:07:41;;;;;;;5.55;3.60;;;;;;;;;;4993326;28;20034;-80
2021/05/30 01:10:34;;;;;;;4.47;3.35;;;;;;;;;;4993542;28;20034;-80
2021/05/30 01:13:00;;;;;;;5.10;3.60;;;;;;;;;;4993529;28;20058;-80
2021/05/30 01:15:27;;;;;;;6.38;2.72;;;;;;;;;;4976266;28;20477;-80
2021/05/30 01:17:53;;;;;;;3.83;3.42;;;;;;;;;;4993284;28;20511;-80
2021/05/30 01:20:19;;;;;;;5.45;3.67;;;;;;;;;;5009577;28;20527;-80
2021/05/30 01:22:45;;;;;;;4.82;3.45;;;;;;;;;;4974306;28;20026;-80
2021/05/30 01:25:11;;;;;;;4.72;3.22;;;;;;;;;;5009305;28;20104;-80
2021/05/30 01:27:37;;;;;;;4.63;3.55;;;;;;;;;;4985789;28;20043;-80
2021/05/30 01:30:04;;;;;;;5.32;3.25;;;;;;;;;;4985079;28;20062;-80
2021/05/30 01:32:30;;;;;;;4.55;3.15;;;;;;;;;;4989873;28;20034;-80
2021/05/30 01:34:56;;;;;;;6.95;3.42;;;;;;;;;;4973398;28;20424;-81
2021/05/30 01:37:21;;;;;;;5.03;3.83;;;;;;;;;;4973604;28;20110;-81
2021/05/30 01:39:47;;;;;;;7.18;4.32;;;;;;;;;;4972936;28;20066;-81
2021/05/30 01:42:12;;;;;;;5.57;3.10;;;;;;;;;;4973326;28;20053;-80
2021/05/30 01:44:37;;;;;;;4.75;3.10;;;;;;;;;;4989109;28;20034;-80
2021/05/30 01:47:03;;;;;;;3.58;3.08;;;;;;;;;;4989133;28;20038;-81
2021/05/30 01:49:28;;;;;;;5.47;4.03;;;;;;;;;;4985321;28;20030;-80
2021/05/30 01:51:54;;;;;;;4.72;3.30;;;;;;;;;;4989228;28;20054;-80
2021/05/30 01:54:20;;;;;;;5.55;4.15;;;;;;;;;;4988847;28;20124;-80
2021/05/30 01:56:55;;;;;;;5.60;3.97;;;;;;;;;;5003895;28;20042;-80
2021/05/30 01:59:21;;;;;;;5.40;3.38;;;;;;;;;;4992678;28;20077;-80
2021/05/30 02:01:50;;;;;;;4.15;3.47;;;;;;;;;;4981874;28;20023;-80
2021/05/30 02:04:16;;;;;;;4.53;3.50;;;;;;;;;;4988433;28;20038;-80
2021/05/30 02:06:41;;;;;;;4.57;3.75;;;;;;;;;;5005640;28;20026;-80
2021/05/30 02:09:07;;;;;;;4.53;3.42;;;;;;;;;;5021130;28;20389;-80
2021/05/30 02:11:33;;;;;;;4.97;3.70;;;;;;;;;;5004848;28;20058;-81
2021/05/30 02:14:01;;;;;;;4.75;3.72;;;;;;;;;;5003015;28;20043;-80
2021/05/30 02:16:30;;;;;;;4.15;3.47;;;;;;;;;;5004186;28;20130;-80
2021/05/30 02:18:56;;;;;;;5.90;3.45;;;;;;;;;;4988872;28;20043;-80
2021/05/30 02:21:21;;;;;;;5.80;3.40;;;;;;;;;;4987554;28;20038;-80
2021/05/30 02:23:47;;;;;;;5.38;3.88;;;;;;;;;;4940434;28;20034;-80
2021/05/30 02:26:12;;;;;;;4.97;3.97;;;;;;;;;;4956180;28;20034;-80
2021/05/30 02:28:38;;;;;;;5.25;3.53;;;;;;;;;;4956433;28;20039;-81
2021/05/30 02:31:03;;;;;;;5.32;3.67;;;;;;;;;;4987326;28;20034;-80
2021/05/30 02:33:29;;;;;;;4.90;4.22;;;;;;;;;;4991427;28;20120;-81
2021/05/30 02:35:55;;;;;;;4.63;3.45;;;;;;;;;;4991910;28;20069;-80
2021/05/30 02:38:21;;;;;;;4.85;3.83;;;;;;;;;;4975654;28;20409;-80
2021/05/30 02:40:46;;;;;;;5.07;3.72;;;;;;;;;;4991251;28;20037;-81
2021/05/30 02:43:12;;;;;;;5.13;3.38;;;;;;;;;;4975580;28;20065;-80
2021/05/30 02:45:37;;;;;;;4.43;3.58;;;;;;;;;;4991237;28;20034;-80
2021/05/30 02:48:03;;;;;;;4.47;3.40;;;;;;;;;;5007815;28;20116;-80
2021/05/30 02:50:28;;;;;;;4.57;3.60;;;;;;;;;;4975446;28;20113;-80
2021/05/30 02:52:54;;;;;;;4.97;3.22;;;;;;;;;;4990824;28;20164;-80
2021/05/30 02:55:19;;;;;;;5.40;3.97;;;;;;;;;;4991064;28;20057;-81
2021/05/30 02:57:44;;;;;;;5.43;3.58;;;;;;;;;;4991183;28;20479;-80
2021/05/30 03:00:11;;;;;;;5.97;3.55;;;;;;;;;;4990841;28;20457;-80
2021/05/30 03:02:36;;;;;;;4.50;3.47;;;;;;;;;;4988214;28;20054;-81
2021/05/30 03:05:03;;;;;;;7.13;3.63;;;;;;;;;;5004376;28;20037;-80
2021/05/30 03:07:28;;;;;;;5.25;3.95;;;;;;;;;;4987421;28;20026;-81
2021/05/30 03:09:54;;;;;;;4.30;3.22;;;;;;;;;;5005422;28;20034;-80
2021/05/30 03:12:21;;;;;;;4.45;3.42;;;;;;;;;;5004168;28;20030;-80
2021/05/30 03:14:47;;;;;;;6.00;3.85;;;;;;;;;;4988679;28;20362;-80
2021/05/30 03:17:12;;;;;;;4.70;3.90;;;;;;;;;;5007203;28;20130;-80
2021/05/30 03:19:38;;;;;;;4.38;3.67;;;;;;;;;;5007334;28;20034;-81
2021/05/30 03:22:04;;;;;;;5.82;3.40;;;;;;;;;;4974433;28;20113;-81
2021/05/30 03:24:29;;;;;;;4.95;3.53;;;;;;;;;;4990943;28;20030;-80
2021/05/30 03:26:55;;;;;;;4.65;3.60;;;;;;;;;;4990833;28;20117;-81
2021/05/30 03:29:20;;;;;;;4.03;3.33;;;;;;;;;;4977673;28;20062;-80
2021/05/30 03:31:46;;;;;;;4.57;3.50;;;;;;;;;;4995031;28;20034;-80
2021/05/30 03:34:11;;;;;;;4.43;3.63;;;;;;;;;;4995287;28;20061;-80
2021/05/30 03:36:37;;;;;;;4.32;3.75;;;;;;;;;;4994556;28;20041;-80
2021/05/30 03:39:06;;;;;;;4.57;3.63;;;;;;;;;;4994674;28;20096;-80
2021/05/30 03:41:37;;;;;;;4.35;3.72;;;;;;;;;;4978922;28;20041;-81
2021/05/30 03:44:04;;;;;;;4.47;3.88;;;;;;;;;;5011297;28;20041;-80
2021/05/30 03:46:29;;;;;;;5.22;4.30;;;;;;;;;;4994557;28;20065;-81
2021/05/30 03:48:55;;;;;;;4.63;3.30;;;;;;;;;;5011080;28;20058;-80
2021/05/30 03:51:21;;;;;;;6.38;3.75;;;;;;;;;;4994110;28;20073;-81
2021/05/30 03:53:46;;;;;;;3.80;3.35;;;;;;;;;;4978464;28;20105;-81
2021/05/30 03:56:12;;;;;;;5.68;3.80;;;;;;;;;;4994674;28;20081;-81
2021/05/30 03:58:37;;;;;;;5.13;3.60;;;;;;;;;;4994012;28;20042;-81
2021/05/30 04:01:03;;;;;;;4.72;3.45;;;;;;;;;;4994003;28;20030;-81
2021/05/30 04:03:33;;;;;;;4.95;3.78;;;;;;;;;;4994118;28;20041;-81
2021/05/30 04:06:00;;;;;;;4.63;3.55;;;;;;;;;;4978787;28;20037;-80
2021/05/30 04:08:26;;;;;;;6.47;3.67;;;;;;;;;;5011254;28;20042;-80
2021/05/30 04:10:51;;;;;;;4.75;3.58;;;;;;;;;;4990893;28;20389;-81
2021/05/30 04:13:17;;;;;;;4.00;3.33;;;;;;;;;;4975262;28;20049;-80
2021/05/30 04:15:43;;;;;;;4.90;3.28;;;;;;;;;;4974527;28;20038;-80
2021/05/30 04:18:08;;;;;;;4.47;3.35;;;;;;;;;;4990875;28;20033;-80
2021/05/30 04:20:34;;;;;;;4.68;3.45;;;;;;;;;;4990420;28;20058;-81
2021/05/30 04:22:59;;;;;;;4.63;2.78;;;;;;;;;;4991008;28;20035;-80
2021/05/30 04:25:25;;;;;;;4.63;3.70;;;;;;;;;;4974687;28;20085;-80
2021/05/30 04:27:50;;;;;;;4.03;3.08;;;;;;;;;;4974551;28;20054;-80
2021/05/30 04:30:16;;;;;;;4.35;3.65;;;;;;;;;;4993921;28;20054;-80
2021/05/30 04:32:41;;;;;;;4.32;3.20;;;;;;;;;;4977457;28;20034;-81
2021/05/30 04:35:08;;;;;;;4.82;3.47;;;;;;;;;;4976199;28;20481;-80
2021/05/30 04:37:33;;;;;;;4.03;3.08;;;;;;;;;;5008275;28;20699;-80
2021/05/30 04:39:59;;;;;;;3.70;3.22;;;;;;;;;;5007635;28;20129;-80
2021/05/30 04:42:24;;;;;;;3.92;3.08;;;;;;;;;;5008184;28;20026;-80
2021/05/30 04:44:50;;;;;;;4.32;3.08;;;;;;;;;;4993643;28;20814;-80
2021/05/30 04:47:15;;;;;;;4.22;3.35;;;;;;;;;;5010173;28;20035;-81
2021/05/30 04:49:41;;;;;;;4.22;3.03;;;;;;;;;;5010067;28;20041;-80
2021/05/30 04:52:07;;;;;;;5.07;3.60;;;;;;;;;;4993288;28;20069;-81
2021/05/30 04:54:32;;;;;;;4.75;3.55;;;;;;;;;;4993717;28;20030;-79
2021/05/30 04:56:58;;;;;;;3.88;3.08;;;;;;;;;;4993448;28;20065;-79
2021/05/30 04:59:23;;;;;;;4.35;3.20;;;;;;;;;;4992587;28;20472;-79
2021/05/30 05:01:50;;;;;;;4.22;3.03;;;;;;;;;;4992972;28;20061;-79
2021/05/30 05:04:15;;;;;;;3.90;3.10;;;;;;;;;;4982839;28;20046;-80
2021/05/30 05:06:41;;;;;;;4.35;2.90;;;;;;;;;;4993422;28;20095;-79
2021/05/30 05:09:06;;;;;;;5.05;3.22;;;;;;;;;;4993451;28;20120;-79
2021/05/30 05:11:32;;;;;;;4.25;3.10;;;;;;;;;;4993313;28;20109;-80
2021/05/30 05:13:58;;;;;;;5.03;3.05;;;;;;;;;;5009589;28;20031;-79
2021/05/30 05:16:24;;;;;;;4.13;2.80;;;;;;;;;;4993043;28;20100;-79
2021/05/30 05:18:49;;;;;;;3.95;3.45;;;;;;;;;;5009293;28;20436;-79
2021/05/30 05:21:14;;;;;;;4.47;2.90;;;;;;;;;;5009105;28;20873;-79
2021/05/30 05:23:41;;;;;;;5.90;3.38;;;;;;;;;;5009164;28;20412;-79
2021/05/30 05:26:06;;;;;;;3.80;3.30;;;;;;;;;;5008860;28;20042;-79
2021/05/30 05:28:32;;;;;;;7.50;4.78;;;;;;;;;;5008571;28;20167;-79
2021/05/30 05:30:58;;;;;;;4.88;2.90;;;;;;;;;;5007298;28;20092;-80
2021/05/30 05:33:24;;;;;;;3.80;3.03;;;;;;;;;;4990144;28;20030;-78
2021/05/30 05:35:49;;;;;;;3.97;2.97;;;;;;;;;;5017804;28;20038;-79
2021/05/30 05:38:15;;;;;;;5.35;2.95;;;;;;;;;;4979719;28;20060;-80
2021/05/30 05:40:40;;;;;;;5.13;3.30;;;;;;;;;;4977061;28;20038;-78
2021/05/30 05:43:06;;;;;;;8.43;3.78;;;;;;;;;;4975614;28;20113;-79
2021/05/30 05:45:31;;;;;;;6.40;3.03;;;;;;;;;;5009392;28;20035;-78
2021/05/30 05:47:57;;;;;;;4.57;3.50;;;;;;;;;;4973565;28;20039;-79
2021/05/30 05:50:23;;;;;;;6.95;3.85;;;;;;;;;;4976433;28;20178;-79
2021/05/30 05:52:48;;;;;;;8.35;4.40;;;;;;;;;;4974421;28;20384;-79
2021/05/30 05:55:14;;;;;;;5.90;3.95;;;;;;;;;;5001522;28;20075;-80
2021/05/30 05:57:40;;;;;;;6.22;4.22;;;;;;;;;;5003461;28;20026;-79
2021/05/30 06:00:07;;;;;;;11.73;7.70;;;;;;;;;;5005337;28;20035;-79
2021/05/30 06:02:32;;;;;;;11.18;7.63;;;;;;;;;;4997957;28;20035;-79
2021/05/30 06:04:58;;;;;;;9.73;7.18;;;;;;;;;;4976315;28;20037;-79
2021/05/30 06:07:23;;;;;;;8.60;6.72;;;;;;;;;;5002302;28;20022;-80
2021/05/30 06:09:49;;;;;;;8.48;6.95;;;;;;;;;;4985818;28;20057;-79
2021/05/30 06:12:14;;;;;;;10.00;7.10;;;;;;;;;;4983036;28;20488;-79
2021/05/30 06:14:39;;;;;;;9.60;6.35;;;;;;;;;;4986631;28;20033;-80
2021/05/30 06:17:05;;;;;;;8.07;6.32;;;;;;;;;;5007464;28;20053;-79
2021/05/30 06:19:31;;;;;;;8.15;6.20;;;;;;;;;;5007910;28;20077;-79
2021/05/30 06:21:56;;;;;;;8.05;6.28;;;;;;;;;;5007949;28;20037;-79
2021/05/30 06:24:22;;;;;;;10.32;5.88;;;;;;;;;;4991803;28;20420;-80
2021/05/30 06:26:47;;;;;;;8.65;6.00;;;;;;;;;;4991500;28;20057;-80
2021/05/30 06:29:12;;;;;;;8.52;5.93;;;;;;;;;;4996700;28;20038;-80
2021/05/30 06:31:38;;;;;;;8.55;6.57;;;;;;;;;;4991206;28;20038;-80
2021/05/30 06:34:04;;;;;;;6.95;6.25;;;;;;;;;;4991661;28;20385;-79
2021/05/30 06:36:30;;;;;;;9.10;6.95;;;;;;;;;;4991951;28;20146;-80
2021/05/30 06:38:55;;;;;;;7.78;5.97;;;;;;;;;;4991878;28;20057;-79
2021/05/30 06:41:21;;;;;;;7.50;5.05;;;;;;;;;;4991502;28;20447;-78
2021/05/30 06:43:50;;;;;;;7.97;5.22;;;;;;;;;;4991553;28;20452;-78
2021/05/30 06:46:16;;;;;;;8.07;5.60;;;;;;;;;;4991237;28;20038;-78
2021/05/30 06:48:41;;;;;;;6.03;5.30;;;;;;;;;;4991324;28;20033;-78
2021/05/30 06:51:13;;;;;;;8.27;4.88;;;;;;;;;;4989453;28;20054;-77
2021/05/30 06:53:39;;;;;;;14.10;5.88;;;;;;;;;;5006344;28;20037;-78
2021/05/30 06:56:04;;;;;;;6.95;5.43;;;;;;;;;;5005332;28;20431;-78
2021/05/30 06:58:30;;;;;;;7.15;5.68;;;;;;;;;;5005179;28;20509;-78
2021/05/30 07:00:55;;;;;;;8.73;6.60;;;;;;;;;;5006603;28;20501;-78
2021/05/30 07:03:21;;;;;;;8.07;5.65;;;;;;;;;;5010418;28;20037;-79
2021/05/30 07:05:46;;;;;;;7.90;6.07;;;;;;;;;;5027183;28;20499;-78
2021/05/30 07:08:11;;;;;;;5.88;4.82;;;;;;;;;;5010967;28;20033;-78
2021/05/30 07:10:37;;;;;;;7.68;5.95;;;;;;;;;;4990938;28;20072;-78
2021/05/30 07:13:02;;;;;;;9.02;6.22;;;;;;;;;;5006680;28;20038;-78
2021/05/30 07:15:28;;;;;;;7.18;5.78;;;;;;;;;;4990816;28;20030;-78
2021/05/30 07:17:53;;;;;;;6.18;5.20;;;;;;;;;;4991061;28;20030;-78
2021/05/30 07:20:19;;;;;;;6.05;5.13;;;;;;;;;;4987493;28;20038;-78
2021/05/30 07:22:44;;;;;;;6.00;4.82;;;;;;;;;;5003758;28;20030;-78
2021/05/30 07:25:10;;;;;;;7.15;5.97;;;;;;;;;;4991009;28;20053;-78
2021/05/30 07:27:36;;;;;;;7.38;5.32;;;;;;;;;;4970804;28;20061;-78
2021/05/30 07:30:02;;;;;;;6.03;5.43;;;;;;;;;;4993697;28;20113;-78
2021/05/30 07:32:28;;;;;;;5.90;4.82;;;;;;;;;;4956175;28;20476;-78
2021/05/30 07:34:53;;;;;;;6.93;5.13;;;;;;;;;;5003282;28;20043;-78
2021/05/30 07:37:18;;;;;;;7.97;6.53;;;;;;;;;;4958363;28;20041;-78
2021/05/30 07:39:44;;;;;;;6.55;5.38;;;;;;;;;;4974552;28;20036;-78
2021/05/30 07:42:09;;;;;;;6.38;5.03;;;;;;;;;;4990403;28;20065;-78
2021/05/30 07:44:35;;;;;;;7.55;6.05;;;;;;;;;;5001603;28;20509;-78
2021/05/30 07:47:00;;;;;;;6.45;5.53;;;;;;;;;;5004032;28;20043;-78
2021/05/30 07:49:26;;;;;;;6.35;5.18;;;;;;;;;;4990113;28;20034;-78
2021/05/30 07:51:52;;;;;;;8.48;4.68;;;;;;;;;;4990749;28;20030;-78
2021/05/30 07:54:17;;;;;;;5.70;4.70;;;;;;;;;;4958408;28;20027;-78
2021/05/30 07:56:43;;;;;;;5.10;4.43;;;;;;;;;;4990392;28;20030;-78
2021/05/30 07:59:10;;;;;;;10.25;6.90;;;;;;;;;;4990327;28;20072;-78
2021/05/30 08:01:35;;;;;;;10.30;8.00;;;;;;;;;;4996611;28;20038;-78
2021/05/30 08:04:01;;;;;;;8.27;5.32;;;;;;;;;;4993620;28;20129;-78
2021/05/30 08:06:28;;;;;;;5.85;4.80;;;;;;;;;;5010222;28;20041;-78
2021/05/30 08:08:53;;;;;;;5.00;4.15;;;;;;;;;;4998536;28;20035;-78
2021/05/30 08:11:19;;;;;;;6.22;4.57;;;;;;;;;;4970544;28;20500;-78
2021/05/30 08:13:44;;;;;;;6.93;4.25;;;;;;;;;;5000458;28;20042;-78
2021/05/30 08:16:10;;;;;;;6.82;4.43;;;;;;;;;;5013104;28;20052;-78
2021/05/30 08:18:35;;;;;;;5.72;3.85;;;;;;;;;;5007257;28;20477;-78
2021/05/30 08:21:01;;;;;;;6.32;4.28;;;;;;;;;;4976571;28;20046;-78
2021/05/30 08:23:27;;;;;;;6.25;4.75;;;;;;;;;;5006836;28;20042;-78
2021/05/30 08:25:52;;;;;;;5.75;4.00;;;;;;;;;;5007269;28;20031;-78
2021/05/30 08:28:18;;;;;;;3.60;2.75;;;;;;;;;;5007618;28;20405;-78
2021/05/30 08:30:43;;;;;;;6.65;4.13;;;;;;;;;;4989770;28;20493;-78
2021/05/30 08:33:09;;;;;;;4.65;3.65;;;;;;;;;;4994086;28;20045;-78
2021/05/30 08:35:34;;;;;;;4.75;3.22;;;;;;;;;;5010133;28;20392;-78
2021/05/30 08:37:59;;;;;;;5.63;2.90;;;;;;;;;;4993839;28;20100;-79
2021/05/30 08:40:25;;;;;;;6.13;3.30;;;;;;;;;;4993526;28;20048;-79
2021/05/30 08:42:50;;;;;;;5.47;3.30;;;;;;;;;;4993583;28;20459;-78
2021/05/30 08:45:17;;;;;;;3.97;3.58;;;;;;;;;;4977341;28;20054;-79
2021/05/30 08:47:43;;;;;;;6.30;3.30;;;;;;;;;;4993504;28;20046;-79
2021/05/30 08:50:09;;;;;;;5.22;3.15;;;;;;;;;;4977234;28;20105;-79
2021/05/30 08:52:34;;;;;;;5.05;3.13;;;;;;;;;;4990346;28;20044;-79
2021/05/30 08:55:01;;;;;;;3.97;2.75;;;;;;;;;;5010040;28;20034;-79
2021/05/30 08:57:26;;;;;;;4.75;3.47;;;;;;;;;;4993211;28;20042;-79
2021/05/30 08:59:56;;;;;;;6.20;3.58;;;;;;;;;;4977044;28;20373;-79
2021/05/30 09:02:21;;;;;;;4.47;3.42;;;;;;;;;;5009494;28;20118;-79
2021/05/30 09:04:52;;;;;;;3.72;3.05;;;;;;;;;;4993740;28;20108;-79
2021/05/30 09:07:18;;;;;;;7.40;3.40;;;;;;;;;;5009534;28;20476;-79
2021/05/30 09:09:47;;;;;;;4.72;2.75;;;;;;;;;;5009324;28;20121;-79
2021/05/30 09:12:25;;;;;;;4.78;3.05;;;;;;;;;;4977620;28;20113;-79
2021/05/30 09:14:52;;;;;;;5.10;2.90;;;;;;;;;;4993207;28;20113;-79
2021/05/30 09:17:18;;;;;;;4.40;3.30;;;;;;;;;;4992726;28;20034;-79
2021/05/30 09:19:47;;;;;;;4.47;3.42;;;;;;;;;;4989443;28;20031;-79
2021/05/30 09:22:28;;;;;;;4.40;3.45;;;;;;;;;;4989305;28;20031;-79
2021/05/30 09:25:04;;;;;;;5.03;3.63;;;;;;;;;;4974470;28;20105;-79
2021/05/30 09:27:29;;;;;;;5.20;3.22;;;;;;;;;;4989552;28;20038;-79
2021/05/30 09:30:18;;;;;;;4.35;3.40;;;;;;;;;;4979170;28;20041;-78
2021/05/30 09:32:56;;;;;;;4.55;3.22;;;;;;;;;;5008285;28;20037;-79
2021/05/30 09:35:22;;;;;;;3.90;2.65;;;;;;;;;;4992399;28;20117;-79
2021/05/30 09:37:58;;;;;;;4.07;2.92;;;;;;;;;;4992694;28;20497;-79
2021/05/30 09:40:36;;;;;;;6.35;3.28;;;;;;;;;;4992517;28;20076;-79
2021/05/30 09:43:10;;;;;;;7.13;3.15;;;;;;;;;;4976910;28;20035;-79
2021/05/30 09:45:39;;;;;;;4.00;2.95;;;;;;;;;;4991920;28;20113;-79
2021/05/30 09:48:13;;;;;;;3.65;2.70;;;;;;;;;;4975839;28;20444;-79
2021/05/30 09:50:38;;;;;;;5.05;2.80;;;;;;;;;;4988994;28;20031;-78
2021/05/30 09:53:04;;;;;;;5.90;2.97;;;;;;;;;;4986363;28;20117;-79
2021/05/30 09:55:33;;;;;;;4.57;3.10;;;;;;;;;;4991687;28;20031;-79
2021/05/30 09:58:15;;;;;;;4.63;2.90;;;;;;;;;;4992734;28;20046;-79
2021/05/30 10:01:01;;;;;;;4.90;3.05;;;;;;;;;;5008493;28;20105;-79
2021/05/30 10:03:26;;;;;;;4.18;2.95;;;;;;;;;;4988439;28;20410;-79
2021/05/30 10:05:52;;;;;;;4.53;2.85;;;;;;;;;;4972664;28;20027;-79
2021/05/30 10:08:18;;;;;;;4.82;3.25;;;;;;;;;;4988823;28;20038;-79
2021/05/30 10:10:44;;;;;;;4.72;3.15;;;;;;;;;;5002603;28;20443;-79
2021/05/30 10:13:10;;;;;;;5.05;3.83;;;;;;;;;;5008465;28;20109;-79
2021/05/30 10:15:36;;;;;;;5.32;3.75;;;;;;;;;;5008222;28;20120;-79
2021/05/30 10:18:06;;;;;;;5.35;3.30;;;;;;;;;;5008275;28;20050;-79
2021/05/30 10:20:32;;;;;;;7.53;3.25;;;;;;;;;;5008277;28;20058;-79
2021/05/30 10:22:57;;;;;;;4.95;3.20;;;;;;;;;;5007842;28;20044;-79
2021/05/30 10:25:24;;;;;;;3.75;3.25;;;;;;;;;;5008074;28;20100;-79
2021/05/30 10:28:09;;;;;;;5.50;2.40;;;;;;;;;;5007687;28;20096;-80
2021/05/30 10:30:35;;;;;;;3.88;2.63;;;;;;;;;;4990925;28;20034;-78
2021/05/30 10:33:16;;;;;;;4.13;2.63;;;;;;;;;;4991898;28;20477;-78
2021/05/30 10:35:43;;;;;;;4.35;2.63;;;;;;;;;;5008344;28;20488;-80
2021/05/30 10:38:09;;;;;;;3.42;2.33;;;;;;;;;;4987946;28;20038;-79
2021/05/30 10:40:36;;;;;;;3.35;1.98;;;;;;;;;;4995088;28;20036;-80
2021/05/30 10:43:08;;;;;;;3.88;2.38;;;;;;;;;;5019784;28;20038;-80
2021/05/30 10:45:34;;;;;;;4.20;2.53;;;;;;;;;;4992956;28;20547;-80
2021/05/30 10:48:02;;;;;;;3.35;2.40;;;;;;;;;;4968540;28;20082;-80
2021/05/30 10:50:36;;;;;;;4.38;2.33;;;;;;;;;;4991291;28;20129;-80
2021/05/30 10:53:03;;;;;;;4.00;2.50;;;;;;;;;;4988966;28;20097;-80
2021/05/30 10:55:32;;;;;;;5.22;2.78;;;;;;;;;;4986773;28;20097;-80
2021/05/30 10:57:57;;;;;;;4.65;3.03;;;;;;;;;;4975649;28;20073;-80
2021/05/30 11:00:26;;;;;;;3.17;2.30;;;;;;;;;;4959098;28;20070;-79
2021/05/30 11:05:58;;;;;;;5.63;3.25;;;;;;;;;;4994053;28;20512;-80
2021/05/30 11:08:33;;;;;;;4.68;3.22;;;;;;;;;;4986485;28;20042;-79
2021/05/30 11:11:24;;;;;;;5.07;2.88;;;;;;;;;;4992307;28;20124;-79
2021/05/30 11:14:02;;;;;;;4.32;2.50;;;;;;;;;;5006793;28;20518;-79
2021/05/30 11:16:29;;;;;;;3.00;2.08;;;;;;;;;;5006872;28;20034;-79
2021/05/30 11:19:05;;;;;;;3.90;2.25;;;;;;;;;;5007083;28;20041;-78
2021/05/30 11:21:38;;;;;;;4.07;2.45;;;;;;;;;;4953724;28;20124;-79
2021/05/30 11:24:04;;;;;;;3.60;2.13;;;;;;;;;;5003387;28;20058;-79
2021/05/30 11:26:30;;;;;;;4.00;2.83;;;;;;;;;;4990958;28;20045;-80
2021/05/30 11:28:55;;;;;;;4.20;2.65;;;;;;;;;;5020551;28;20039;-79
2021/05/30 11:31:20;;;;;;;4.15;2.70;;;;;;;;;;5006942;28;20472;-79
2021/05/30 11:33:57;;;;;;;6.78;3.03;;;;;;;;;;4990780;28;20034;-79
2021/05/30 11:36:35;;;;;;;3.72;2.97;;;;;;;;;;4990964;28;20161;-80
2021/05/30 11:39:08;;;;;;;4.45;3.05;;;;;;;;;;4991074;28;20034;-80
2021/05/30 11:41:54;;;;;;;3.53;2.63;;;;;;;;;;4996882;28;20042;-80
2021/05/30 11:44:20;;;;;;;4.63;2.60;;;;;;;;;;5003349;28;20058;-80
2021/05/30 11:46:50;;;;;;;5.40;2.22;;;;;;;;;;5004096;28;20493;-80
2021/05/30 11:49:24;;;;;;;3.85;2.65;;;;;;;;;;4998885;28;20547;-80
2021/05/30 11:52:06;;;;;;;3.63;2.58;;;;;;;;;;5011925;28;20034;-80
2021/05/30 11:54:44;;;;;;;4.13;2.40;;;;;;;;;;4999780;28;20115;-80
2021/05/30 11:57:16;;;;;;;2.95;2.33;;;;;;;;;;5015034;28;20042;-80
2021/05/30 12:00:02;;;;;;;;;;;;;;;;;;4998817;28;20038;-80
2021/05/30 12:02:38;;;;;;;3.75;2.10;;;;;;;;;;4993714;28;19921;-80
2021/05/30 12:05:08;;;;;;;4.93;2.63;;;;;;;;;;5009367;28;20030;-80
2021/05/30 12:07:34;;;;;;;5.20;2.50;;;;;;;;;;4999477;28;20470;-80
2021/05/30 12:10:00;;;;;;;3.33;2.17;;;;;;;;;;4991372;28;20042;-80
2021/05/30 12:12:28;;;;;;;4.03;2.53;;;;;;;;;;4990881;28;20055;-79
2021/05/30 12:14:59;;;;;;;3.50;2.63;;;;;;;;;;4991095;28;20110;-79
2021/05/30 12:17:24;;;;;;;3.88;2.42;;;;;;;;;;4990898;28;20043;-80
2021/05/30 12:19:49;;;;;;;4.57;2.50;;;;;;;;;;4988609;28;20038;-79
2021/05/30 12:22:26;;;;;;;5.55;2.70;;;;;;;;;;4984075;28;20038;-80
2021/05/30 12:24:52;;;;;;;3.60;2.30;;;;;;;;;;4989422;28;20038;-79
2021/05/30 12:27:17;;;;;;;4.13;2.45;;;;;;;;;;4990472;28;20572;-79
2021/05/30 12:29:48;;;;;;;5.63;2.38;;;;;;;;;;4990472;28;20038;-79
2021/05/30 12:32:17;;;;;;;5.25;1.98;;;;;;;;;;4977567;28;20035;-79
2021/05/30 12:34:43;;;;;;;4.10;2.70;;;;;;;;;;4974831;28;20431;-79
2021/05/30 12:37:08;;;;;;;3.28;2.03;;;;;;;;;;4974834;28;20444;-78
2021/05/30 12:39:34;;;;;;;4.57;2.70;;;;;;;;;;4958480;28;20482;-78
2021/05/30 12:42:08;;;;;;;3.00;1.92;;;;;;;;;;4981399;28;20031;-77
2021/05/30 12:44:38;;;;;;;2.78;2.03;;;;;;;;;;5022150;28;20425;-79
2021/05/30 12:47:14;;;;;;;3.95;2.00;;;;;;;;;;5006707;28;20034;-78
2021/05/30 12:49:39;;;;;;;3.53;2.05;;;;;;;;;;5022501;28;20481;-78
2021/05/30 12:52:10;;;;;;;3.75;2.20;;;;;;;;;;5006292;28;20038;-79
2021/05/30 12:54:37;;;;;;;3.75;1.77;;;;;;;;;;5006234;28;20035;-79
2021/05/30 12:57:03;;;;;;;3.45;1.60;;;;;;;;;;4989739;28;20042;-79
2021/05/30 12:59:32;;;;;;;2.78;1.58;;;;;;;;;;4989417;28;20027;-79
2021/05/30 13:01:57;;;;;;;2.10;1.48;;;;;;;;;;5014521;28;20037;-79
2021/05/30 13:04:24;;;;;;;5.40;2.00;;;;;;;;;;4993303;28;20113;-78
2021/05/30 13:07:01;;;;;;;3.78;1.38;;;;;;;;;;4993006;28;20080;-78
2021/05/30 13:09:39;;;;;;;3.65;1.40;;;;;;;;;;4994642;28;20067;-78
2021/05/30 13:12:32;;;;;;;3.30;1.48;;;;;;;;;;5009708;28;20038;-79
2021/05/30 13:15:10;;;;;;;2.45;1.30;;;;;;;;;;5007141;28;20031;-79
2021/05/30 13:17:36;;;;;;;3.17;1.08;;;;;;;;;;5008824;28;20045;-78
2021/05/30 13:20:11;;;;;;;2.38;1.20;;;;;;;;;;4993206;28;20463;-78
2021/05/30 13:23:09;;;;;;;2.70;1.05;;;;;;;;;;5008978;28;20030;-78
2021/05/30 13:25:42;;;;;;;3.85;1.63;;;;;;;;;;4986161;28;20134;-79
2021/05/30 13:28:29;;;;;;;5.63;1.60;;;;;;;;;;4964207;28;20438;-79
2021/05/30 13:30:58;;;;;;;2.28;0.98;;;;;;;;;;4994360;28;20118;-79
2021/05/30 13:33:23;;;;;;;2.45;0.98;;;;;;;;;;4987738;28;20097;-79
2021/05/30 13:35:50;;;;;;;2.60;1.25;;;;;;;;;;4997227;28;20440;-80
2021/05/30 13:38:15;;;;;;;4.05;1.27;;;;;;;;;;4994496;28;20409;-82
2021/05/30 13:40:51;;;;;;;1.52;0.80;;;;;;;;;;5009857;28;20038;-80
2021/05/30 13:43:17;;;;;;;2.47;1.35;;;;;;;;;;4994701;28;20073;-81
2021/05/30 13:45:43;;;;;;;3.40;1.75;;;;;;;;;;5006747;28;20416;-80
2021/05/30 13:48:08;;;;;;;2.40;1.80;;;;;;;;;;5007659;28;20048;-80
2021/05/30 13:50:38;;;;;;;3.55;2.03;;;;;;;;;;4993204;28;20026;-80
2021/05/30 13:53:07;;;;;;;3.63;2.10;;;;;;;;;;4992564;28;20034;-80
2021/05/30 13:55:33;;;;;;;2.92;2.25;;;;;;;;;;5007652;28;20039;-81
2021/05/30 13:57:58;;;;;;;3.47;2.10;;;;;;;;;;5012055;28;20042;-80
2021/05/30 14:00:24;;;;;;;3.35;2.00;;;;;;;;;;5003047;28;20030;-80
2021/05/30 14:02:49;;;;;;;3.33;1.90;;;;;;;;;;5011769;28;20488;-80
2021/05/30 14:05:15;;;;;;;2.90;2.00;;;;;;;;;;4999717;28;20444;-80
2021/05/30 14:07:40;;;;;;;4.10;2.10;;;;;;;;;;4992333;28;20676;-82
2021/05/30 14:10:06;;;;;;;3.20;2.17;;;;;;;;;;5008442;28;20034;-81
2021/05/30 14:12:31;;;;;;;2.83;1.90;;;;;;;;;;4990963;28;20068;-81
2021/05/30 14:14:57;;;;;;;4.75;2.00;;;;;;;;;;4980059;28;20385;-81
2021/05/30 14:17:22;;;;;;;3.95;1.60;;;;;;;;;;5014654;28;20097;-81
2021/05/30 14:19:48;;;;;;;3.33;1.65;;;;;;;;;;5007772;28;20031;-81
2021/05/30 14:22:13;;;;;;;2.50;1.90;;;;;;;;;;4988276;28;20039;-81
2021/05/30 14:24:39;;;;;;;2.83;1.52;;;;;;;;;;4988660;28;20177;-82
2021/05/30 14:27:04;;;;;;;3.08;2.08;;;;;;;;;;4972288;28;20049;-79
2021/05/30 14:29:30;;;;;;;2.80;2.13;;;;;;;;;;4986250;28;20438;-79
2021/05/30 14:31:55;;;;;;;2.60;1.40;;;;;;;;;;4991215;28;20044;-80
2021/05/30 14:34:21;;;;;;;3.50;1.73;;;;;;;;;;5008107;28;20038;-78
2021/05/30 14:36:46;;;;;;;3.38;2.03;;;;;;;;;;5008117;28;20038;-77
2021/05/30 14:39:11;;;;;;;3.30;1.40;;;;;;;;;;5007999;28;20101;-79
2021/05/30 14:41:39;;;;;;;3.20;1.48;;;;;;;;;;5007592;28;20095;-79
2021/05/30 14:44:05;;;;;;;2.83;1.58;;;;;;;;;;5007331;28;20105;-78
2021/05/30 14:46:33;;;;;;;3.03;1.50;;;;;;;;;;5003537;28;20161;-79
2021/05/30 14:48:58;;;;;;;2.53;1.75;;;;;;;;;;5007133;28;20506;-78